Terminal Aerodrome Forecast
Issued by NWS St Louis, MO

Home | Current Version | Previous Version | Text Only | Print | Product List | Glossary On
Versions: 1 2 3 4 5 6 7 8 9 10 11 12 13 14 15 16
160
FTUS43 KLSX 230520
TAFCOU
TAF
KCOU 230520Z 2306/2406 02010KT P6SM VCSH OVC040
     FM231400 04012G20KT P6SM BKN070
     FM240300 05006KT P6SM BKN120=

USA.gov is the U.S. government's official web portal to all federal, state and local government web resources and services.